首页
METAR-TAF:

METAR-TAF

机场 :

勒克瑙, 印度

纬度: 26-45N, 经度: 080-53E, 海拔: 122米

当前天气观测

该预报发布于26分钟前的20:30 UTC
风速5节,风向西北
温度 13°C
湿度 94%
气压 1017 hPa
能見度: 1500
散云层高于2000英尺
多云层高于10000英尺
轻雾

METAR: VILK 292030Z 32005KT 1500 R27/2000 RMID/2000 R09/2000 BR SCT020 BKN100 13/12 Q1017 NOSIG

时间: 02:26 (20:56 UTC)

预报

该预报发布于3小时和56分钟前的17:00 UTC
预报有效从29日的 18点(UTC)到 30日的 24点(UTC)
风速2节,风向多变
能見度: 1500
散云层高于2000英尺
多云层高于10000英尺
轻雾
成为
从 29日的 21点(UTC)到 29日的 23点(UTC)
能見度: 0800
浅雾, 雾
短暂存在
从 29日的 22点(UTC)到 30日的 02点(UTC)
散云层高于1800英尺
少量云层高于3000英尺, 积雨云.
阴天层高于9000英尺
雷暴, 小雨, 雨
成为
从 30日的 00点(UTC)到 30日的 02点(UTC)
能見度: 0600
散云层高于2000英尺
散云层高于10000英尺
成为
从 30日的 04点(UTC)到 30日的 06点(UTC)
风速6节,风向西转西北
能見度: 1500
散云层高于2000英尺
多云层高于10000英尺
轻雾
成为
从 30日的 08点(UTC)到 30日的 10点(UTC)
能見度: 3000
成为
从 30日的 15点(UTC)到 30日的 17点(UTC)
风速2节,风向多变
能見度: 1500
轻雾
短暂存在
从 30日的 21点(UTC)到 30日的 24点(UTC)
能見度: 1000
散云层高于1800英尺
少量云层高于3000英尺, 积雨云.
阴天层高于9000英尺
雷暴, 小雨

TAF: VILK 291700Z 2918/3024 VRB02KT 1500 BR SCT020 BKN100 BECMG 2921/2923 0800 MIFG FG TEMPO 2922/3002 -TSRA RA SCT018 FEW030CB OVC090 BECMG 3000/3002 0600 FG SCT020 SCT100 BECMG 3004/3006 29006KT 1500 BR SCT020 BKN100 BECMG 3008/3010 3000 HZ BECMG 3015/3017 VRB02KT 1500 BR TEMPO 3021/3024 1000 -TSRA SCT018 FEW030CB OVC090

超过4000个机场的气象观测和天气预报(METAR&TAF报告)。

可查询的气象台以黄色和红色小点在地图上表示。

将鼠标移到小点上方,可查看气象台名称。

然后点击查看天气观测和预报。

如需切换地图:点击带黑十字的绿色按钮放大地图;点击带横线的绿色按钮缩小地图;或者点击绿色箭头查看邻近地区的地图。


METAR-TAF: